sensor_id;sensor_type;location;lat;lon;timestamp;P1;durP1;ratioP1;P2;durP2;ratioP2
10281;SDS011;5186;59.472;18.048;2023-01-29T00:01:13;4.43;;;1.40;;
10281;SDS011;5186;59.472;18.048;2023-01-29T00:03:38;4.33;;;1.23;;
10281;SDS011;5186;59.472;18.048;2023-01-29T00:06:05;8.67;;;1.47;;
10281;SDS011;5186;59.472;18.048;2023-01-29T00:08:33;4.27;;;1.57;;
10281;SDS011;5186;59.472;18.048;2023-01-29T00:11:00;7.30;;;1.27;;
10281;SDS011;5186;59.472;18.048;2023-01-29T00:13:26;5.80;;;1.57;;
10281;SDS011;5186;59.472;18.048;2023-01-29T00:15:53;6.87;;;1.50;;
10281;SDS011;5186;59.472;18.048;2023-01-29T00:18:22;5.47;;;1.47;;
10281;SDS011;5186;59.472;18.048;2023-01-29T00:20:48;7.80;;;1.37;;
10281;SDS011;5186;59.472;18.048;2023-01-29T00:23:14;3.03;;;1.20;;
10281;SDS011;5186;59.472;18.048;2023-01-29T00:25:40;4.87;;;1.40;;
10281;SDS011;5186;59.472;18.048;2023-01-29T00:28:07;3.77;;;1.40;;
10281;SDS011;5186;59.472;18.048;2023-01-29T00:30:33;6.53;;;1.30;;
10281;SDS011;5186;59.472;18.048;2023-01-29T00:32:59;4.17;;;1.80;;
10281;SDS011;5186;59.472;18.048;2023-01-29T00:35:24;5.37;;;1.47;;
10281;SDS011;5186;59.472;18.048;2023-01-29T00:37:50;3.70;;;1.20;;
10281;SDS011;5186;59.472;18.048;2023-01-29T00:40:16;4.10;;;1.20;;
10281;SDS011;5186;59.472;18.048;2023-01-29T00:42:43;3.93;;;1.67;;
10281;SDS011;5186;59.472;18.048;2023-01-29T00:45:27;3.57;;;1.17;;
10281;SDS011;5186;59.472;18.048;2023-01-29T00:47:53;4.43;;;1.40;;
10281;SDS011;5186;59.472;18.048;2023-01-29T00:50:18;6.20;;;2.00;;
10281;SDS011;5186;59.472;18.048;2023-01-29T00:52:44;4.57;;;1.20;;
10281;SDS011;5186;59.472;18.048;2023-01-29T00:55:10;5.43;;;1.20;;
10281;SDS011;5186;59.472;18.048;2023-01-29T00:57:36;4.97;;;1.30;;
10281;SDS011;5186;59.472;18.048;2023-01-29T01:00:06;2.33;;;0.97;;
10281;SDS011;5186;59.472;18.048;2023-01-29T01:02:34;5.70;;;1.50;;
10281;SDS011;5186;59.472;18.048;2023-01-29T01:05:18;3.60;;;1.40;;
10281;SDS011;5186;59.472;18.048;2023-01-29T01:07:45;3.23;;;1.20;;
10281;SDS011;5186;59.472;18.048;2023-01-29T01:10:13;6.27;;;1.47;;
10281;SDS011;5186;59.472;18.048;2023-01-29T01:12:52;7.13;;;1.33;;
10281;SDS011;5186;59.472;18.048;2023-01-29T01:15:20;5.37;;;1.40;;
10281;SDS011;5186;59.472;18.048;2023-01-29T01:17:50;6.53;;;1.30;;
10281;SDS011;5186;59.472;18.048;2023-01-29T01:20:17;6.43;;;1.90;;
10281;SDS011;5186;59.472;18.048;2023-01-29T01:22:43;7.93;;;1.70;;
10281;SDS011;5186;59.472;18.048;2023-01-29T01:25:09;3.43;;;1.30;;
10281;SDS011;5186;59.472;18.048;2023-01-29T01:27:35;7.07;;;1.53;;
10281;SDS011;5186;59.472;18.048;2023-01-29T01:30:05;3.53;;;1.10;;
10281;SDS011;5186;59.472;18.048;2023-01-29T01:32:32;3.43;;;0.93;;
10281;SDS011;5186;59.472;18.048;2023-01-29T01:34:57;5.53;;;1.30;;
10281;SDS011;5186;59.472;18.048;2023-01-29T01:37:23;5.33;;;1.23;;
10281;SDS011;5186;59.472;18.048;2023-01-29T01:39:48;4.00;;;1.70;;
10281;SDS011;5186;59.472;18.048;2023-01-29T01:42:15;4.93;;;1.70;;
10281;SDS011;5186;59.472;18.048;2023-01-29T01:47:44;3.77;;;1.43;;
10281;SDS011;5186;59.472;18.048;2023-01-29T01:50:14;2.43;;;1.20;;
10281;SDS011;5186;59.472;18.048;2023-01-29T01:52:44;5.60;;;1.13;;
10281;SDS011;5186;59.472;18.048;2023-01-29T01:55:16;4.03;;;1.10;;
10281;SDS011;5186;59.472;18.048;2023-01-29T01:57:44;3.37;;;1.00;;
10281;SDS011;5186;59.472;18.048;2023-01-29T02:00:15;3.50;;;1.20;;
10281;SDS011;5186;59.472;18.048;2023-01-29T02:02:52;3.33;;;1.30;;
10281;SDS011;5186;59.472;18.048;2023-01-29T02:05:37;4.70;;;1.60;;
10281;SDS011;5186;59.472;18.048;2023-01-29T02:08:24;2.80;;;1.10;;
10281;SDS011;5186;59.472;18.048;2023-01-29T02:11:17;1.20;;;1.00;;
10281;SDS011;5186;59.472;18.048;2023-01-29T02:13:43;6.97;;;1.63;;
10281;SDS011;5186;59.472;18.048;2023-01-29T02:16:09;4.40;;;1.30;;
10281;SDS011;5186;59.472;18.048;2023-01-29T02:18:34;2.97;;;1.10;;
10281;SDS011;5186;59.472;18.048;2023-01-29T02:29:06;4.30;;;1.40;;
10281;SDS011;5186;59.472;18.048;2023-01-29T02:32:08;3.40;;;1.10;;
10281;SDS011;5186;59.472;18.048;2023-01-29T02:37:46;6.47;;;1.40;;
10281;SDS011;5186;59.472;18.048;2023-01-29T02:40:35;3.57;;;1.30;;
10281;SDS011;5186;59.472;18.048;2023-01-29T02:43:24;5.77;;;1.67;;
10281;SDS011;5186;59.472;18.048;2023-01-29T02:48:42;3.30;;;1.47;;
10281;SDS011;5186;59.472;18.048;2023-01-29T02:51:34;4.63;;;1.60;;
10281;SDS011;5186;59.472;18.048;2023-01-29T02:54:27;3.23;;;1.40;;
10281;SDS011;5186;59.472;18.048;2023-01-29T02:57:14;4.57;;;1.27;;
10281;SDS011;5186;59.472;18.048;2023-01-29T02:59:48;4.87;;;1.47;;
10281;SDS011;5186;59.472;18.048;2023-01-29T03:02:27;3.40;;;1.20;;
10281;SDS011;5186;59.472;18.048;2023-01-29T03:04:58;2.97;;;0.97;;
10281;SDS011;5186;59.472;18.048;2023-01-29T03:07:27;3.57;;;1.23;;
10281;SDS011;5186;59.472;18.048;2023-01-29T03:10:08;4.13;;;1.20;;
10281;SDS011;5186;59.472;18.048;2023-01-29T03:12:36;3.37;;;1.23;;
10281;SDS011;5186;59.472;18.048;2023-01-29T03:15:10;3.63;;;1.33;;
10281;SDS011;5186;59.472;18.048;2023-01-29T03:17:58;4.23;;;1.23;;
10281;SDS011;5186;59.472;18.048;2023-01-29T03:20:39;3.63;;;1.43;;
10281;SDS011;5186;59.472;18.048;2023-01-29T03:23:13;3.47;;;1.30;;
10281;SDS011;5186;59.472;18.048;2023-01-29T03:25:51;3.20;;;1.20;;
10281;SDS011;5186;59.472;18.048;2023-01-29T03:28:41;3.70;;;1.03;;
10281;SDS011;5186;59.472;18.048;2023-01-29T03:31:28;3.07;;;1.20;;
10281;SDS011;5186;59.472;18.048;2023-01-29T03:34:15;3.57;;;1.13;;
10281;SDS011;5186;59.472;18.048;2023-01-29T03:36:50;2.37;;;1.40;;
10281;SDS011;5186;59.472;18.048;2023-01-29T03:39:26;1.63;;;1.10;;
10281;SDS011;5186;59.472;18.048;2023-01-29T03:45:24;3.77;;;1.37;;
10281;SDS011;5186;59.472;18.048;2023-01-29T03:50:12;2.77;;;1.20;;
10281;SDS011;5186;59.472;18.048;2023-01-29T04:01:28;4.30;;;1.43;;
10281;SDS011;5186;59.472;18.048;2023-01-29T04:06:36;2.33;;;1.20;;
10281;SDS011;5186;59.472;18.048;2023-01-29T04:09:05;5.80;;;1.43;;
10281;SDS011;5186;59.472;18.048;2023-01-29T04:11:37;5.63;;;1.40;;
10281;SDS011;5186;59.472;18.048;2023-01-29T04:14:09;2.37;;;1.00;;
10281;SDS011;5186;59.472;18.048;2023-01-29T04:16:36;3.10;;;1.00;;
10281;SDS011;5186;59.472;18.048;2023-01-29T04:19:05;5.00;;;1.33;;
10281;SDS011;5186;59.472;18.048;2023-01-29T04:21:32;4.43;;;1.40;;
10281;SDS011;5186;59.472;18.048;2023-01-29T04:24:01;5.70;;;1.30;;
10281;SDS011;5186;59.472;18.048;2023-01-29T04:29:28;2.87;;;1.50;;
10281;SDS011;5186;59.472;18.048;2023-01-29T04:40:47;3.93;;;1.90;;
10281;SDS011;5186;59.472;18.048;2023-01-29T04:45:53;3.57;;;1.57;;
10281;SDS011;5186;59.472;18.048;2023-01-29T04:59:16;5.70;;;2.00;;
10281;SDS011;5186;59.472;18.048;2023-01-29T05:01:49;3.87;;;2.07;;
10281;SDS011;5186;59.472;18.048;2023-01-29T05:04:15;4.17;;;2.37;;
10281;SDS011;5186;59.472;18.048;2023-01-29T05:06:44;7.70;;;2.20;;
10281;SDS011;5186;59.472;18.048;2023-01-29T05:09:13;8.73;;;2.83;;
10281;SDS011;5186;59.472;18.048;2023-01-29T05:11:40;4.93;;;2.23;;
10281;SDS011;5186;59.472;18.048;2023-01-29T05:14:07;3.57;;;1.83;;
10281;SDS011;5186;59.472;18.048;2023-01-29T05:16:39;9.43;;;2.20;;
10281;SDS011;5186;59.472;18.048;2023-01-29T05:19:12;5.47;;;2.20;;
10281;SDS011;5186;59.472;18.048;2023-01-29T05:21:39;6.33;;;2.10;;
10281;SDS011;5186;59.472;18.048;2023-01-29T05:24:12;4.17;;;2.00;;
10281;SDS011;5186;59.472;18.048;2023-01-29T05:26:41;7.03;;;2.10;;
10281;SDS011;5186;59.472;18.048;2023-01-29T05:29:26;6.27;;;2.57;;
10281;SDS011;5186;59.472;18.048;2023-01-29T05:31:51;5.53;;;2.00;;
10281;SDS011;5186;59.472;18.048;2023-01-29T05:34:17;7.53;;;2.67;;
10281;SDS011;5186;59.472;18.048;2023-01-29T05:36:43;9.47;;;2.37;;
10281;SDS011;5186;59.472;18.048;2023-01-29T05:39:08;5.03;;;2.10;;
10281;SDS011;5186;59.472;18.048;2023-01-29T05:41:34;8.00;;;2.30;;
10281;SDS011;5186;59.472;18.048;2023-01-29T05:43:59;4.83;;;2.33;;
10281;SDS011;5186;59.472;18.048;2023-01-29T05:46:25;5.37;;;2.40;;
10281;SDS011;5186;59.472;18.048;2023-01-29T05:48:53;6.47;;;2.30;;
10281;SDS011;5186;59.472;18.048;2023-01-29T05:51:19;8.90;;;2.40;;
10281;SDS011;5186;59.472;18.048;2023-01-29T05:53:45;9.43;;;2.17;;
10281;SDS011;5186;59.472;18.048;2023-01-29T05:56:10;9.13;;;2.43;;
10281;SDS011;5186;59.472;18.048;2023-01-29T05:58:36;7.93;;;2.37;;
10281;SDS011;5186;59.472;18.048;2023-01-29T06:01:12;3.53;;;2.23;;
10281;SDS011;5186;59.472;18.048;2023-01-29T06:03:39;6.27;;;2.53;;
10281;SDS011;5186;59.472;18.048;2023-01-29T06:06:05;8.43;;;2.63;;
10281;SDS011;5186;59.472;18.048;2023-01-29T06:08:30;8.30;;;2.37;;
10281;SDS011;5186;59.472;18.048;2023-01-29T06:10:56;7.80;;;2.60;;
10281;SDS011;5186;59.472;18.048;2023-01-29T06:13:22;5.70;;;2.50;;
10281;SDS011;5186;59.472;18.048;2023-01-29T06:15:47;5.50;;;2.33;;
10281;SDS011;5186;59.472;18.048;2023-01-29T06:18:13;5.37;;;2.30;;
10281;SDS011;5186;59.472;18.048;2023-01-29T06:20:38;7.53;;;2.67;;
10281;SDS011;5186;59.472;18.048;2023-01-29T06:23:04;8.73;;;2.57;;
10281;SDS011;5186;59.472;18.048;2023-01-29T06:25:29;4.23;;;2.20;;
10281;SDS011;5186;59.472;18.048;2023-01-29T06:27:55;6.27;;;2.73;;
10281;SDS011;5186;59.472;18.048;2023-01-29T06:30:21;4.70;;;2.97;;
10281;SDS011;5186;59.472;18.048;2023-01-29T06:32:46;6.27;;;2.90;;
10281;SDS011;5186;59.472;18.048;2023-01-29T06:35:12;4.77;;;2.50;;
10281;SDS011;5186;59.472;18.048;2023-01-29T06:37:38;5.80;;;2.70;;
10281;SDS011;5186;59.472;18.048;2023-01-29T06:40:04;8.70;;;2.60;;
10281;SDS011;5186;59.472;18.048;2023-01-29T06:42:30;5.30;;;2.67;;
10281;SDS011;5186;59.472;18.048;2023-01-29T06:44:56;9.70;;;2.63;;
10281;SDS011;5186;59.472;18.048;2023-01-29T06:47:22;7.83;;;2.90;;
10281;SDS011;5186;59.472;18.048;2023-01-29T06:49:48;6.80;;;3.00;;
10281;SDS011;5186;59.472;18.048;2023-01-29T06:52:14;10.07;;;2.57;;
10281;SDS011;5186;59.472;18.048;2023-01-29T06:54:40;5.37;;;2.47;;
10281;SDS011;5186;59.472;18.048;2023-01-29T06:57:05;4.87;;;2.47;;
10281;SDS011;5186;59.472;18.048;2023-01-29T06:59:31;5.10;;;2.93;;
10281;SDS011;5186;59.472;18.048;2023-01-29T07:01:57;5.53;;;2.70;;
10281;SDS011;5186;59.472;18.048;2023-01-29T07:04:22;9.03;;;2.47;;
10281;SDS011;5186;59.472;18.048;2023-01-29T07:06:48;9.37;;;2.93;;
10281;SDS011;5186;59.472;18.048;2023-01-29T07:09:13;7.67;;;2.50;;
10281;SDS011;5186;59.472;18.048;2023-01-29T07:11:39;7.17;;;2.33;;
10281;SDS011;5186;59.472;18.048;2023-01-29T07:14:05;5.37;;;2.30;;
10281;SDS011;5186;59.472;18.048;2023-01-29T07:16:31;5.80;;;2.80;;
10281;SDS011;5186;59.472;18.048;2023-01-29T07:18:57;6.93;;;2.50;;
10281;SDS011;5186;59.472;18.048;2023-01-29T07:21:22;4.10;;;2.20;;
10281;SDS011;5186;59.472;18.048;2023-01-29T07:23:48;5.93;;;2.30;;
10281;SDS011;5186;59.472;18.048;2023-01-29T07:26:14;8.40;;;2.40;;
10281;SDS011;5186;59.472;18.048;2023-01-29T07:28:40;4.63;;;2.30;;
10281;SDS011;5186;59.472;18.048;2023-01-29T07:31:06;7.90;;;2.53;;
10281;SDS011;5186;59.472;18.048;2023-01-29T07:33:32;6.90;;;2.23;;
10281;SDS011;5186;59.472;18.048;2023-01-29T07:35:58;4.83;;;2.50;;
10281;SDS011;5186;59.472;18.048;2023-01-29T07:38:24;5.60;;;2.30;;
10281;SDS011;5186;59.472;18.048;2023-01-29T07:40:53;8.20;;;2.60;;
10281;SDS011;5186;59.472;18.048;2023-01-29T07:43:18;4.30;;;2.40;;
10281;SDS011;5186;59.472;18.048;2023-01-29T07:45:44;5.20;;;2.40;;
10281;SDS011;5186;59.472;18.048;2023-01-29T07:48:11;7.90;;;2.30;;
10281;SDS011;5186;59.472;18.048;2023-01-29T07:50:38;7.87;;;2.37;;
10281;SDS011;5186;59.472;18.048;2023-01-29T07:53:04;5.57;;;2.00;;
10281;SDS011;5186;59.472;18.048;2023-01-29T07:55:29;7.10;;;2.70;;
10281;SDS011;5186;59.472;18.048;2023-01-29T07:57:59;8.27;;;2.40;;
10281;SDS011;5186;59.472;18.048;2023-01-29T08:00:26;5.40;;;2.30;;
10281;SDS011;5186;59.472;18.048;2023-01-29T08:02:52;7.17;;;2.13;;
10281;SDS011;5186;59.472;18.048;2023-01-29T08:05:18;7.13;;;2.47;;
10281;SDS011;5186;59.472;18.048;2023-01-29T08:07:44;5.67;;;2.03;;
10281;SDS011;5186;59.472;18.048;2023-01-29T08:10:10;7.73;;;2.70;;
10281;SDS011;5186;59.472;18.048;2023-01-29T08:12:36;6.87;;;2.33;;
10281;SDS011;5186;59.472;18.048;2023-01-29T08:15:01;11.60;;;2.80;;
10281;SDS011;5186;59.472;18.048;2023-01-29T08:17:27;7.07;;;2.40;;
10281;SDS011;5186;59.472;18.048;2023-01-29T08:19:53;6.83;;;2.40;;
10281;SDS011;5186;59.472;18.048;2023-01-29T08:22:19;6.93;;;2.27;;
10281;SDS011;5186;59.472;18.048;2023-01-29T08:24:44;6.00;;;2.23;;
10281;SDS011;5186;59.472;18.048;2023-01-29T08:27:10;5.60;;;2.00;;
10281;SDS011;5186;59.472;18.048;2023-01-29T08:29:35;4.73;;;2.17;;
10281;SDS011;5186;59.472;18.048;2023-01-29T08:32:01;4.80;;;2.40;;
10281;SDS011;5186;59.472;18.048;2023-01-29T08:34:27;5.10;;;2.07;;
10281;SDS011;5186;59.472;18.048;2023-01-29T08:36:52;5.97;;;2.50;;
10281;SDS011;5186;59.472;18.048;2023-01-29T08:39:18;2.97;;;1.83;;
10281;SDS011;5186;59.472;18.048;2023-01-29T08:41:44;7.73;;;1.97;;
10281;SDS011;5186;59.472;18.048;2023-01-29T08:44:09;7.47;;;2.30;;
10281;SDS011;5186;59.472;18.048;2023-01-29T08:46:35;6.00;;;1.90;;
10281;SDS011;5186;59.472;18.048;2023-01-29T08:49:01;5.07;;;1.87;;
10281;SDS011;5186;59.472;18.048;2023-01-29T08:51:27;3.17;;;1.67;;
10281;SDS011;5186;59.472;18.048;2023-01-29T08:53:52;6.50;;;2.30;;
10281;SDS011;5186;59.472;18.048;2023-01-29T08:56:18;6.13;;;2.03;;
10281;SDS011;5186;59.472;18.048;2023-01-29T08:58:44;5.00;;;1.80;;
10281;SDS011;5186;59.472;18.048;2023-01-29T09:01:12;5.47;;;2.10;;
10281;SDS011;5186;59.472;18.048;2023-01-29T09:03:38;9.80;;;1.90;;
10281;SDS011;5186;59.472;18.048;2023-01-29T09:06:11;6.47;;;1.90;;
10281;SDS011;5186;59.472;18.048;2023-01-29T09:08:38;4.70;;;2.10;;
10281;SDS011;5186;59.472;18.048;2023-01-29T09:11:04;4.30;;;1.70;;
10281;SDS011;5186;59.472;18.048;2023-01-29T09:13:30;5.60;;;1.87;;
10281;SDS011;5186;59.472;18.048;2023-01-29T09:15:59;6.07;;;2.03;;
10281;SDS011;5186;59.472;18.048;2023-01-29T09:18:25;5.10;;;1.70;;
10281;SDS011;5186;59.472;18.048;2023-01-29T09:20:52;4.37;;;1.97;;
10281;SDS011;5186;59.472;18.048;2023-01-29T09:23:18;4.17;;;1.80;;
10281;SDS011;5186;59.472;18.048;2023-01-29T09:25:44;5.03;;;1.90;;
10281;SDS011;5186;59.472;18.048;2023-01-29T09:28:09;5.43;;;1.63;;
10281;SDS011;5186;59.472;18.048;2023-01-29T09:30:35;7.17;;;2.20;;
10281;SDS011;5186;59.472;18.048;2023-01-29T09:33:05;4.03;;;1.60;;
10281;SDS011;5186;59.472;18.048;2023-01-29T09:35:31;4.93;;;2.00;;
10281;SDS011;5186;59.472;18.048;2023-01-29T09:37:57;5.40;;;1.80;;
10281;SDS011;5186;59.472;18.048;2023-01-29T09:43:25;6.97;;;1.67;;
10281;SDS011;5186;59.472;18.048;2023-01-29T09:45:59;5.73;;;1.70;;
10281;SDS011;5186;59.472;18.048;2023-01-29T09:48:30;4.47;;;1.73;;
10281;SDS011;5186;59.472;18.048;2023-01-29T09:50:59;7.20;;;1.80;;
10281;SDS011;5186;59.472;18.048;2023-01-29T09:53:37;6.67;;;1.80;;
10281;SDS011;5186;59.472;18.048;2023-01-29T09:56:11;5.67;;;1.47;;
10281;SDS011;5186;59.472;18.048;2023-01-29T09:58:38;3.77;;;1.30;;
10281;SDS011;5186;59.472;18.048;2023-01-29T10:03:58;6.70;;;1.97;;
10281;SDS011;5186;59.472;18.048;2023-01-29T10:09:03;5.97;;;1.80;;
10281;SDS011;5186;59.472;18.048;2023-01-29T10:11:55;5.77;;;1.93;;
10281;SDS011;5186;59.472;18.048;2023-01-29T10:17:49;6.67;;;1.77;;
10281;SDS011;5186;59.472;18.048;2023-01-29T10:20:27;7.17;;;1.60;;
10281;SDS011;5186;59.472;18.048;2023-01-29T10:23:23;5.10;;;1.43;;
10281;SDS011;5186;59.472;18.048;2023-01-29T10:25:56;5.43;;;1.40;;
10281;SDS011;5186;59.472;18.048;2023-01-29T10:28:30;5.47;;;1.60;;
10281;SDS011;5186;59.472;18.048;2023-01-29T10:31:08;5.60;;;1.27;;
10281;SDS011;5186;59.472;18.048;2023-01-29T10:33:40;3.60;;;1.30;;
10281;SDS011;5186;59.472;18.048;2023-01-29T10:36:08;3.23;;;1.30;;
10281;SDS011;5186;59.472;18.048;2023-01-29T10:38:45;4.77;;;1.60;;
10281;SDS011;5186;59.472;18.048;2023-01-29T10:57:31;5.37;;;1.27;;
10281;SDS011;5186;59.472;18.048;2023-01-29T11:00:21;6.23;;;1.40;;
10281;SDS011;5186;59.472;18.048;2023-01-29T11:02:52;3.03;;;1.17;;
10281;SDS011;5186;59.472;18.048;2023-01-29T11:05:40;2.90;;;1.40;;
10281;SDS011;5186;59.472;18.048;2023-01-29T11:08:10;5.13;;;1.27;;
10281;SDS011;5186;59.472;18.048;2023-01-29T11:10:49;6.53;;;1.20;;
10281;SDS011;5186;59.472;18.048;2023-01-29T11:13:28;4.80;;;1.57;;
10281;SDS011;5186;59.472;18.048;2023-01-29T11:15:58;4.00;;;1.70;;
10281;SDS011;5186;59.472;18.048;2023-01-29T11:18:23;3.50;;;1.37;;
10281;SDS011;5186;59.472;18.048;2023-01-29T11:20:58;6.87;;;1.50;;
10281;SDS011;5186;59.472;18.048;2023-01-29T11:23:28;3.03;;;1.03;;
10281;SDS011;5186;59.472;18.048;2023-01-29T11:25:55;5.93;;;1.53;;
10281;SDS011;5186;59.472;18.048;2023-01-29T11:28:35;5.83;;;1.27;;
10281;SDS011;5186;59.472;18.048;2023-01-29T11:31:02;6.73;;;1.30;;
10281;SDS011;5186;59.472;18.048;2023-01-29T11:33:38;4.20;;;1.57;;
10281;SDS011;5186;59.472;18.048;2023-01-29T11:36:18;3.73;;;1.50;;
10281;SDS011;5186;59.472;18.048;2023-01-29T11:41:50;3.47;;;1.20;;
10281;SDS011;5186;59.472;18.048;2023-01-29T11:44:28;4.23;;;1.53;;
10281;SDS011;5186;59.472;18.048;2023-01-29T11:47:06;5.73;;;1.30;;
10281;SDS011;5186;59.472;18.048;2023-01-29T11:52:25;6.27;;;1.50;;
10281;SDS011;5186;59.472;18.048;2023-01-29T11:55:00;6.30;;;1.50;;
10281;SDS011;5186;59.472;18.048;2023-01-29T12:00:00;5.90;;;1.10;;
10281;SDS011;5186;59.472;18.048;2023-01-29T12:02:32;7.07;;;1.43;;
10281;SDS011;5186;59.472;18.048;2023-01-29T12:05:02;7.00;;;1.60;;
10281;SDS011;5186;59.472;18.048;2023-01-29T12:07:30;5.57;;;1.67;;
10281;SDS011;5186;59.472;18.048;2023-01-29T12:09:57;4.50;;;1.20;;
10281;SDS011;5186;59.472;18.048;2023-01-29T12:15:40;4.23;;;1.30;;
10281;SDS011;5186;59.472;18.048;2023-01-29T12:17:49;6.73;;;1.20;;
10281;SDS011;5186;59.472;18.048;2023-01-29T12:20:28;5.97;;;1.37;;
10281;SDS011;5186;59.472;18.048;2023-01-29T12:23:00;6.97;;;1.60;;
10281;SDS011;5186;59.472;18.048;2023-01-29T12:25:35;3.60;;;1.10;;
10281;SDS011;5186;59.472;18.048;2023-01-29T12:36:16;5.80;;;1.50;;
10281;SDS011;5186;59.472;18.048;2023-01-29T12:38:49;7.20;;;1.57;;
10281;SDS011;5186;59.472;18.048;2023-01-29T12:41:29;7.77;;;1.23;;
10281;SDS011;5186;59.472;18.048;2023-01-29T12:47:23;4.80;;;1.07;;
10281;SDS011;5186;59.472;18.048;2023-01-29T12:50:28;6.70;;;1.40;;
10281;SDS011;5186;59.472;18.048;2023-01-29T12:53:15;6.70;;;1.27;;
10281;SDS011;5186;59.472;18.048;2023-01-29T12:55:52;8.47;;;1.30;;
10281;SDS011;5186;59.472;18.048;2023-01-29T12:58:26;6.67;;;1.77;;
10281;SDS011;5186;59.472;18.048;2023-01-29T13:00:54;4.63;;;1.40;;
10281;SDS011;5186;59.472;18.048;2023-01-29T13:03:24;7.80;;;1.40;;
10281;SDS011;5186;59.472;18.048;2023-01-29T13:05:58;5.00;;;1.30;;
10281;SDS011;5186;59.472;18.048;2023-01-29T13:08:31;3.60;;;1.30;;
10281;SDS011;5186;59.472;18.048;2023-01-29T13:11:10;4.30;;;1.03;;
10281;SDS011;5186;59.472;18.048;2023-01-29T13:14:03;5.27;;;1.10;;
10281;SDS011;5186;59.472;18.048;2023-01-29T13:16:40;4.57;;;1.47;;
10281;SDS011;5186;59.472;18.048;2023-01-29T13:19:26;4.80;;;1.77;;
10281;SDS011;5186;59.472;18.048;2023-01-29T13:21:56;7.43;;;1.50;;
10281;SDS011;5186;59.472;18.048;2023-01-29T13:24:38;6.73;;;1.80;;
10281;SDS011;5186;59.472;18.048;2023-01-29T13:27:05;9.13;;;1.87;;
10281;SDS011;5186;59.472;18.048;2023-01-29T13:29:31;6.03;;;1.53;;
10281;SDS011;5186;59.472;18.048;2023-01-29T13:31:58;5.60;;;1.60;;
10281;SDS011;5186;59.472;18.048;2023-01-29T13:34:30;4.57;;;1.57;;
10281;SDS011;5186;59.472;18.048;2023-01-29T13:37:15;8.47;;;2.07;;
10281;SDS011;5186;59.472;18.048;2023-01-29T13:39:48;4.00;;;1.07;;
10281;SDS011;5186;59.472;18.048;2023-01-29T13:42:21;5.53;;;1.40;;
10281;SDS011;5186;59.472;18.048;2023-01-29T13:45:00;6.97;;;1.70;;
10281;SDS011;5186;59.472;18.048;2023-01-29T13:47:29;4.80;;;1.13;;
10281;SDS011;5186;59.472;18.048;2023-01-29T13:52:45;6.67;;;1.30;;
10281;SDS011;5186;59.472;18.048;2023-01-29T14:02:45;6.50;;;1.37;;
10281;SDS011;5186;59.472;18.048;2023-01-29T14:07:56;4.73;;;1.33;;
10281;SDS011;5186;59.472;18.048;2023-01-29T14:10:23;6.77;;;1.13;;
10281;SDS011;5186;59.472;18.048;2023-01-29T14:12:50;5.60;;;1.27;;
10281;SDS011;5186;59.472;18.048;2023-01-29T14:15:24;4.00;;;1.10;;
10281;SDS011;5186;59.472;18.048;2023-01-29T14:20:33;4.47;;;1.33;;
10281;SDS011;5186;59.472;18.048;2023-01-29T14:23:05;5.60;;;1.10;;
10281;SDS011;5186;59.472;18.048;2023-01-29T14:25:40;6.03;;;1.30;;
10281;SDS011;5186;59.472;18.048;2023-01-29T14:28:12;6.47;;;1.53;;
10281;SDS011;5186;59.472;18.048;2023-01-29T14:30:42;4.90;;;1.53;;
10281;SDS011;5186;59.472;18.048;2023-01-29T14:36:12;8.13;;;1.47;;
10281;SDS011;5186;59.472;18.048;2023-01-29T14:38:39;3.30;;;1.37;;
10281;SDS011;5186;59.472;18.048;2023-01-29T14:41:22;5.47;;;1.33;;
10281;SDS011;5186;59.472;18.048;2023-01-29T14:46:57;5.30;;;1.43;;
10281;SDS011;5186;59.472;18.048;2023-01-29T14:52:19;9.20;;;1.50;;
10281;SDS011;5186;59.472;18.048;2023-01-29T14:54:48;4.37;;;1.60;;
10281;SDS011;5186;59.472;18.048;2023-01-29T14:57:16;4.33;;;1.47;;
10281;SDS011;5186;59.472;18.048;2023-01-29T15:00:06;5.37;;;1.33;;
10281;SDS011;5186;59.472;18.048;2023-01-29T15:02:44;3.30;;;1.10;;
10281;SDS011;5186;59.472;18.048;2023-01-29T15:05:16;4.30;;;1.10;;
10281;SDS011;5186;59.472;18.048;2023-01-29T15:08:00;7.90;;;1.50;;
10281;SDS011;5186;59.472;18.048;2023-01-29T15:10:38;7.13;;;1.37;;
10281;SDS011;5186;59.472;18.048;2023-01-29T15:16:19;5.37;;;1.20;;
10281;SDS011;5186;59.472;18.048;2023-01-29T15:18:49;2.90;;;0.80;;
10281;SDS011;5186;59.472;18.048;2023-01-29T15:21:20;5.33;;;1.40;;
10281;SDS011;5186;59.472;18.048;2023-01-29T15:23:46;3.93;;;1.00;;
10281;SDS011;5186;59.472;18.048;2023-01-29T15:26:31;6.00;;;1.30;;
10281;SDS011;5186;59.472;18.048;2023-01-29T15:29:00;5.17;;;1.13;;
10281;SDS011;5186;59.472;18.048;2023-01-29T15:31:26;5.80;;;1.50;;
10281;SDS011;5186;59.472;18.048;2023-01-29T15:33:53;3.13;;;1.00;;
10281;SDS011;5186;59.472;18.048;2023-01-29T15:36:27;5.90;;;1.30;;
10281;SDS011;5186;59.472;18.048;2023-01-29T15:41:35;6.23;;;1.40;;
10281;SDS011;5186;59.472;18.048;2023-01-29T15:44:01;4.23;;;1.50;;
10281;SDS011;5186;59.472;18.048;2023-01-29T15:46:28;5.10;;;1.50;;
10281;SDS011;5186;59.472;18.048;2023-01-29T15:49:01;8.07;;;1.87;;
10281;SDS011;5186;59.472;18.048;2023-01-29T15:51:31;5.67;;;1.90;;
10281;SDS011;5186;59.472;18.048;2023-01-29T15:54:04;4.30;;;1.17;;
10281;SDS011;5186;59.472;18.048;2023-01-29T15:59:03;8.17;;;1.57;;
10281;SDS011;5186;59.472;18.048;2023-01-29T16:01:30;5.13;;;1.40;;
10281;SDS011;5186;59.472;18.048;2023-01-29T16:03:57;7.30;;;1.50;;
10281;SDS011;5186;59.472;18.048;2023-01-29T16:06:28;4.43;;;1.10;;
10281;SDS011;5186;59.472;18.048;2023-01-29T16:09:00;6.50;;;1.50;;
10281;SDS011;5186;59.472;18.048;2023-01-29T16:11:27;9.13;;;2.13;;
10281;SDS011;5186;59.472;18.048;2023-01-29T16:13:53;6.97;;;1.80;;
10281;SDS011;5186;59.472;18.048;2023-01-29T16:16:21;5.47;;;1.40;;
10281;SDS011;5186;59.472;18.048;2023-01-29T16:18:48;5.47;;;1.73;;
10281;SDS011;5186;59.472;18.048;2023-01-29T16:23:54;5.83;;;1.53;;
10281;SDS011;5186;59.472;18.048;2023-01-29T16:26:24;5.87;;;1.10;;
10281;SDS011;5186;59.472;18.048;2023-01-29T16:29:12;8.57;;;2.33;;
10281;SDS011;5186;59.472;18.048;2023-01-29T16:31:40;4.20;;;1.40;;
10281;SDS011;5186;59.472;18.048;2023-01-29T16:34:20;7.87;;;1.50;;
10281;SDS011;5186;59.472;18.048;2023-01-29T16:36:47;5.60;;;1.27;;
10281;SDS011;5186;59.472;18.048;2023-01-29T16:39:17;5.17;;;1.57;;
10281;SDS011;5186;59.472;18.048;2023-01-29T16:42:34;5.13;;;1.97;;
10281;SDS011;5186;59.472;18.048;2023-01-29T16:44:35;7.40;;;1.60;;
10281;SDS011;5186;59.472;18.048;2023-01-29T16:52:24;4.07;;;1.40;;
10281;SDS011;5186;59.472;18.048;2023-01-29T16:54:58;5.30;;;1.30;;
10281;SDS011;5186;59.472;18.048;2023-01-29T16:57:39;6.33;;;1.00;;
10281;SDS011;5186;59.472;18.048;2023-01-29T17:00:06;4.87;;;1.50;;
10281;SDS011;5186;59.472;18.048;2023-01-29T17:02:42;8.70;;;1.47;;
10281;SDS011;5186;59.472;18.048;2023-01-29T17:05:09;7.93;;;1.00;;
10281;SDS011;5186;59.472;18.048;2023-01-29T17:07:50;7.60;;;1.10;;
10281;SDS011;5186;59.472;18.048;2023-01-29T17:10:17;6.17;;;1.33;;
10281;SDS011;5186;59.472;18.048;2023-01-29T17:12:47;8.80;;;1.43;;
10281;SDS011;5186;59.472;18.048;2023-01-29T17:18:22;4.77;;;1.53;;
10281;SDS011;5186;59.472;18.048;2023-01-29T17:20:49;6.13;;;1.27;;
10281;SDS011;5186;59.472;18.048;2023-01-29T17:23:16;7.13;;;1.30;;
10281;SDS011;5186;59.472;18.048;2023-01-29T17:25:42;7.93;;;1.60;;
10281;SDS011;5186;59.472;18.048;2023-01-29T17:28:10;6.80;;;1.40;;
10281;SDS011;5186;59.472;18.048;2023-01-29T17:30:38;6.80;;;1.67;;
10281;SDS011;5186;59.472;18.048;2023-01-29T17:33:10;5.63;;;1.30;;
10281;SDS011;5186;59.472;18.048;2023-01-29T17:35:41;6.17;;;1.07;;
10281;SDS011;5186;59.472;18.048;2023-01-29T17:38:09;10.30;;;3.20;;
10281;SDS011;5186;59.472;18.048;2023-01-29T17:40:37;8.20;;;1.73;;
10281;SDS011;5186;59.472;18.048;2023-01-29T17:43:16;4.67;;;2.27;;